createdAt,value
2023-01-02T00:09:39.953Z,100337.00
2023-01-02T00:19:39.892Z,100343.00
2023-01-02T00:29:40.104Z,100347.00
2023-01-02T00:39:40.147Z,100345.00
2023-01-02T00:49:39.964Z,100335.00
2023-01-02T00:59:40.023Z,100319.00
2023-01-02T01:09:40.365Z,100311.00
2023-01-02T01:19:40.288Z,100306.00
2023-01-02T01:29:40.221Z,100311.00
2023-01-02T01:39:40.092Z,100306.00
2023-01-02T01:49:40.235Z,100311.00
2023-01-02T01:59:40.039Z,100311.00
2023-01-02T02:09:40.114Z,100315.00
2023-01-02T02:19:40.116Z,100317.00
2023-01-02T02:29:40.081Z,100315.00
2023-01-02T02:39:40.153Z,100315.00
2023-01-02T02:49:40.113Z,100313.00
2023-01-02T02:59:40.136Z,100302.00
2023-01-02T03:09:40.164Z,100296.00
2023-01-02T03:19:40.179Z,100300.00
2023-01-02T03:29:40.205Z,100311.00
2023-01-02T03:39:40.329Z,100313.00
2023-01-02T03:49:40.266Z,100309.00
2023-01-02T03:59:40.215Z,100311.00
2023-01-02T04:09:40.349Z,100319.00
2023-01-02T04:19:40.264Z,100313.00
2023-01-02T04:29:40.328Z,100321.00
2023-01-02T04:39:40.343Z,100329.00
2023-01-02T04:49:40.297Z,100333.00
2023-01-02T04:59:40.284Z,100343.00
2023-01-02T05:09:40.349Z,100359.00
2023-01-02T05:19:40.412Z,100368.00
2023-01-02T05:29:40.395Z,100376.00
2023-01-02T05:39:40.453Z,100376.00
2023-01-02T05:49:40.406Z,100382.00
2023-01-02T05:59:40.457Z,100386.00
2023-01-02T06:09:40.472Z,100398.00
2023-01-02T06:19:40.401Z,100398.00
2023-01-02T06:29:40.374Z,100406.00
2023-01-02T06:39:40.524Z,100413.00
2023-01-02T06:49:40.504Z,100421.00
2023-01-02T06:59:40.790Z,100421.00
2023-01-02T07:09:40.521Z,100427.00
2023-01-02T07:19:40.537Z,100435.00
2023-01-02T07:29:40.489Z,100451.00
2023-01-02T07:39:40.616Z,100464.00
2023-01-02T07:49:40.531Z,100476.00
2023-01-02T07:59:40.818Z,100492.00
2023-01-02T08:09:40.567Z,100507.00
2023-01-02T08:19:40.575Z,100529.00
2023-01-02T08:29:41.148Z,100551.00
2023-01-02T08:39:41.607Z,100575.00
2023-01-02T08:49:41.672Z,100600.00
2023-01-02T08:59:41.637Z,100622.00
2023-01-02T09:09:41.627Z,100634.00
2023-01-02T09:19:44.375Z,100655.00
2023-01-02T09:29:44.704Z,100681.00
2023-01-02T09:39:44.631Z,100704.00
2023-01-02T09:49:44.807Z,100726.00
2023-01-02T09:59:44.675Z,100743.00
2023-01-02T10:09:45.563Z,100763.00
2023-01-02T10:19:45.757Z,100780.00
2023-01-02T10:29:45.708Z,100790.00
2023-01-02T10:39:45.717Z,100790.00
2023-01-02T10:49:46.228Z,100792.00
2023-01-02T10:59:46.746Z,100805.00
2023-01-02T11:09:46.782Z,100809.00
2023-01-02T11:20:06.183Z,100811.00
2023-01-02T11:30:05.840Z,100822.00
2023-01-02T11:40:05.959Z,100820.00
2023-01-02T11:50:05.863Z,100819.00
2023-01-02T12:00:07.784Z,100824.00
2023-01-02T12:10:07.887Z,100836.00
2023-01-02T12:20:07.958Z,100846.00
2023-01-02T12:30:07.859Z,100848.00
2023-01-02T12:40:07.892Z,100865.00
2023-01-02T12:50:08.053Z,100879.00
2023-01-02T13:00:07.989Z,100883.00
2023-01-02T13:10:07.880Z,100881.00
2023-01-02T13:20:07.981Z,100887.00
2023-01-02T13:30:07.917Z,100887.00
2023-01-02T13:40:08.018Z,100887.00
2023-01-02T13:50:08.074Z,100903.00
2023-01-02T14:00:09.958Z,100903.00
2023-01-02T14:10:10.443Z,100913.00
2023-01-02T14:20:11.158Z,100934.00
2023-01-02T14:30:11.070Z,100948.00
2023-01-02T14:40:11.074Z,100962.00
2023-01-02T14:50:11.254Z,100975.00
2023-01-02T15:00:14.084Z,100979.00
2023-01-02T15:10:14.625Z,100981.00
2023-01-02T15:20:15.143Z,100997.00
2023-01-02T15:30:15.116Z,101014.00
2023-01-02T15:40:15.898Z,101028.00
2023-01-02T15:50:16.232Z,101050.00
2023-01-02T16:00:16.167Z,101074.00
2023-01-02T16:10:16.209Z,101088.00
2023-01-02T16:20:16.378Z,101103.00
2023-01-02T16:30:16.212Z,101125.00
2023-01-02T16:40:16.291Z,101144.00
2023-01-02T16:50:16.439Z,101156.00
2023-01-02T17:00:17.541Z,101168.00
2023-01-02T17:10:17.950Z,101191.00
2023-01-02T17:20:18.282Z,101217.00
2023-01-02T17:30:18.348Z,101229.00
2023-01-02T17:40:18.299Z,101240.00
2023-01-02T17:50:18.341Z,101258.00
2023-01-02T18:00:18.442Z,101274.00
2023-01-02T18:10:20.906Z,101285.00
2023-01-02T18:20:20.437Z,101305.00
2023-01-02T18:30:20.349Z,101328.00
2023-01-02T18:40:25.941Z,101343.00
2023-01-02T18:50:24.199Z,101365.00
2023-01-02T19:00:25.462Z,101371.00
2023-01-02T19:10:25.459Z,101380.00
2023-01-02T19:20:25.519Z,101398.00
2023-01-02T19:30:25.408Z,101410.00
2023-01-02T19:40:25.582Z,101424.00
2023-01-02T19:50:25.489Z,101441.00
2023-01-02T20:00:25.475Z,101455.00
2023-01-02T20:10:26.800Z,101469.00
2023-01-02T20:20:28.436Z,101478.00
2023-01-02T20:30:28.475Z,101490.00
2023-01-02T20:40:28.928Z,101502.00
2023-01-02T20:50:29.585Z,101512.00
2023-01-02T21:00:29.492Z,101521.00
2023-01-02T21:10:29.583Z,101533.00
2023-01-02T21:20:29.607Z,101549.00
2023-01-02T21:30:31.457Z,101563.00
2023-01-02T21:40:31.691Z,101581.00
2023-01-02T21:50:34.738Z,101591.00
2023-01-02T22:00:34.684Z,101599.00
2023-01-02T22:10:34.650Z,101609.00
2023-01-02T22:20:34.830Z,101620.00
2023-01-02T22:30:35.395Z,101632.00
2023-01-02T22:40:35.648Z,101642.00
2023-01-02T22:50:35.758Z,101654.00
2023-01-02T23:00:35.659Z,101665.00
2023-01-02T23:10:35.879Z,101667.00
2023-01-02T23:20:35.731Z,101671.00
2023-01-02T23:30:35.699Z,101675.00
2023-01-02T23:40:35.723Z,101683.00
2023-01-02T23:50:35.746Z,101703.00
